Springfield, IL (62723)

6:00 PM CDT on July 28, 2016 (GMT -0500)
Stratford Place | | Change Station

Elev 591 ft 39.77 °N, 89.62 °W | Updated 10 seconds ago

Partly Cloudy
Partly Cloudy
86.0 °F
Feels Like 93 °F
N
3.6
Wind Variable Wind from WNW
Gusts 4.9 mph

Today
High -- | Low -- °F
--% Chance of Precip.
Yesterday
High -- | Low -- °F
Precip. -- in
Pressure 29.86 in
Visibility 10.0 miles
Clouds Few 3700 ft
Heat Index 93 °F
Dew Point 73 °F
Humidity 66%
Rainfall 0.00 in
Snow Depth Not available.
5:54 AM 8:15 PM
Waning Crescent, 28% visible
METAR KSPI 282252Z 32006KT 10SM FEW037 31/23 A2988 RMK AO2 SLP112 T03060228
Pressure 29.86 in
Visibility 10.0 miles
Clouds Few 3700 ft
Heat Index 93 °F
Dew Point 73 °F
Humidity 66%
Rainfall 0.00 in
Snow Depth Not available.
5:54 AM 8:15 PM
Waning Crescent, 28% visible
METAR KSPI 282252Z 32006KT 10SM FEW037 31/23 A2988 RMK AO2 SLP112 T03060228

10-Day Weather Forecast

Almanac

Astronomy

Jul. 28, 2016 Rise Set
Actual Time
Civil Twilight
Nautical Twilight
Astronomical Twilight
Moon
Length of Visible Light
Length of Day
Tomorrow will be .
, % of the Moon is Illuminated

Today's Extremes

State Highs State Lows

Community

WunderPhotos

Upload Photos

1,928,220 photos uploaded!

WunderBlog® & News

Nearby

Air Quality

  Air Quality AQ Index Pollutant
Not available.

Snow Depth

Station Depth Elevation

Earthquake Activity

City Distance Mag. Time & Date
Minimum magnitude displayed is 2.5.

Coastal Water Temperatures

Place Temperature

Stations

Nearby Weather Stations

Station Location Temp. Windchill Dew Point Humidity Wind Precip. Elev Updated Type
                   

Watches & Warnings

There are currently no watches in effect.